Accueil
METAR-TAF:

METAR-TAF

Aéroports :

Base aérienne

Niederstetten, Allemagne

latitude: 49-24N, longitude: 009-58E, altitude: 468 m

Observation

Le bulletin a été fait il y a 22 minutes, à 02:20 UTC
Vent 1 kt de nord
Température 2°C
Humidité 87%
Pression 1021 hPa
Visibilité 10 km ou plus
Nuages épars à une hauteur de 5000 ft
Nuages fragmentés à une hauteur de 8000 ft

METAR: ETHN 170220Z 36001KT 9999 SCT050 BKN080 02/M00 Q1021 BLU

Heure: 04:42 (02:42 UTC)

Prévision

Le bulletin a été fait il y a 19 heures et 42 minutes, à 07:00 UTC
Prévision valable du 16 à 08 UTC au 16 à 17 UTC
Vent 8 kt de nord/nord-est
Visibilité 10 km ou plus
Ciel couvert à une hauteur de 3000 ft
Temporairement
du 16 à 08 UTC au 16 à 17 UTC
Vent 10 kt de nord-est
Visibilité: 7000 m
Ciel couvert à une hauteur de 700 ft
pluie faible

TAF: ETHN 160700Z 1608/1617 03008KT 9999 NSW OVC030 TEMPO 1608/1617 04010KT 7000 -RA OVC007

Observations et prévisions météorologiques de plus de 4000 aéroports (messages METAR et TAF).

Les stations disponibles sont représentées par des disques jaunes et rouges sur la carte.

Passer la souris dessus pour voir le nom de la station.

Cliquer dessus pour voir les observations et prévisions météorologiques.

Pour changer de carte: cliquez sur les boutons verts avec une croix noire pour zoomer, sur le bouton vert avec un tiret pour effectuer un zoom arrière, ou sur les flèches vertes pour les cartes adjacentes.


METAR-TAF: